sensor_id;sensor_type;location;lat;lon;timestamp;temperature;humidity
69225;DHT22;56333;51.306;17.056;2022-12-29T00:00:50;8.31;69.30
69225;DHT22;56333;51.306;17.056;2022-12-29T00:02:22;8.30;69.30
69225;DHT22;56333;51.306;17.056;2022-12-29T00:03:52;8.28;69.32
69225;DHT22;56333;51.306;17.056;2022-12-29T00:05:21;8.27;69.35
69225;DHT22;56333;51.306;17.056;2022-12-29T00:06:51;8.24;69.30
69225;DHT22;56333;51.306;17.056;2022-12-29T00:08:21;8.23;69.35
69225;DHT22;56333;51.306;17.056;2022-12-29T00:10:04;8.20;69.40
69225;DHT22;56333;51.306;17.056;2022-12-29T00:11:34;8.19;69.40
69225;DHT22;56333;51.306;17.056;2022-12-29T00:13:02;8.17;69.55
69225;DHT22;56333;51.306;17.056;2022-12-29T00:14:49;8.17;70.03
69225;DHT22;56333;51.306;17.056;2022-12-29T00:16:35;8.16;70.22
69225;DHT22;56333;51.306;17.056;2022-12-29T00:18:08;8.19;70.45
69225;DHT22;56333;51.306;17.056;2022-12-29T00:19:37;8.19;70.18
69225;DHT22;56333;51.306;17.056;2022-12-29T00:21:24;8.21;70.05
69225;DHT22;56333;51.306;17.056;2022-12-29T00:23:11;8.19;69.70
69225;DHT22;56333;51.306;17.056;2022-12-29T00:24:58;8.16;69.55
69225;DHT22;56333;51.306;17.056;2022-12-29T00:26:45;8.15;69.50
69225;DHT22;56333;51.306;17.056;2022-12-29T00:28:35;8.12;69.35
69225;DHT22;56333;51.306;17.056;2022-12-29T00:30:22;8.11;69.32
69225;DHT22;56333;51.306;17.056;2022-12-29T00:32:09;8.09;69.32
69225;DHT22;56333;51.306;17.056;2022-12-29T00:33:56;8.07;69.22
69225;DHT22;56333;51.306;17.056;2022-12-29T00:35:45;8.04;69.28
69225;DHT22;56333;51.306;17.056;2022-12-29T00:37:19;8.04;69.22
69225;DHT22;56333;51.306;17.056;2022-12-29T00:39:11;8.03;69.20
69225;DHT22;56333;51.306;17.056;2022-12-29T00:41:01;8.01;69.25
69225;DHT22;56333;51.306;17.056;2022-12-29T00:42:48;7.99;69.18
69225;DHT22;56333;51.306;17.056;2022-12-29T00:44:34;7.99;69.18
69225;DHT22;56333;51.306;17.056;2022-12-29T00:46:03;7.97;69.18
69225;DHT22;56333;51.306;17.056;2022-12-29T00:47:32;7.97;69.22
69225;DHT22;56333;51.306;17.056;2022-12-29T00:49:02;7.95;69.28
69225;DHT22;56333;51.306;17.056;2022-12-29T00:50:50;7.95;69.63
69225;DHT22;56333;51.306;17.056;2022-12-29T00:52:24;7.96;69.90
69225;DHT22;56333;51.306;17.056;2022-12-29T00:53:53;7.99;70.25
69225;DHT22;56333;51.306;17.056;2022-12-29T00:55:22;8.02;70.30
69225;DHT22;56333;51.306;17.056;2022-12-29T00:56:51;8.04;70.20
69225;DHT22;56333;51.306;17.056;2022-12-29T00:58:21;8.06;70.00
69225;DHT22;56333;51.306;17.056;2022-12-29T00:59:51;8.07;69.80
69225;DHT22;56333;51.306;17.056;2022-12-29T01:01:20;8.07;69.70
69225;DHT22;56333;51.306;17.056;2022-12-29T01:02:50;8.07;69.63
69225;DHT22;56333;51.306;17.056;2022-12-29T01:04:20;8.09;69.57
69225;DHT22;56333;51.306;17.056;2022-12-29T01:05:51;8.06;69.55
69225;DHT22;56333;51.306;17.056;2022-12-29T01:07:21;8.05;69.53
69225;DHT22;56333;51.306;17.056;2022-12-29T01:08:50;8.02;69.53
69225;DHT22;56333;51.306;17.056;2022-12-29T01:10:32;7.97;69.57
69225;DHT22;56333;51.306;17.056;2022-12-29T01:12:02;7.93;69.55
69225;DHT22;56333;51.306;17.056;2022-12-29T01:13:33;7.89;69.60
69225;DHT22;56333;51.306;17.056;2022-12-29T01:15:07;7.86;69.70
69225;DHT22;56333;51.306;17.056;2022-12-29T01:16:39;7.82;69.63
69225;DHT22;56333;51.306;17.056;2022-12-29T01:18:09;7.78;69.75
69225;DHT22;56333;51.306;17.056;2022-12-29T01:19:38;7.78;70.00
69225;DHT22;56333;51.306;17.056;2022-12-29T01:21:07;7.75;70.32
69225;DHT22;56333;51.306;17.056;2022-12-29T01:22:37;7.75;70.55
69225;DHT22;56333;51.306;17.056;2022-12-29T01:24:08;7.75;70.40
69225;DHT22;56333;51.306;17.056;2022-12-29T01:25:36;7.74;70.43
69225;DHT22;56333;51.306;17.056;2022-12-29T01:27:05;7.74;70.40
69225;DHT22;56333;51.306;17.056;2022-12-29T01:28:34;7.74;70.28
69225;DHT22;56333;51.306;17.056;2022-12-29T01:30:05;7.72;70.15
69225;DHT22;56333;51.306;17.056;2022-12-29T01:31:36;7.71;70.00
69225;DHT22;56333;51.306;17.056;2022-12-29T01:33:07;7.69;70.00
69225;DHT22;56333;51.306;17.056;2022-12-29T01:34:38;7.68;69.93
69225;DHT22;56333;51.306;17.056;2022-12-29T01:36:09;7.66;69.85
69225;DHT22;56333;51.306;17.056;2022-12-29T01:37:40;7.66;69.85
69225;DHT22;56333;51.306;17.056;2022-12-29T01:39:09;7.62;69.75
69225;DHT22;56333;51.306;17.056;2022-12-29T01:40:46;7.61;69.78
69225;DHT22;56333;51.306;17.056;2022-12-29T01:42:16;7.59;69.80
69225;DHT22;56333;51.306;17.056;2022-12-29T01:43:51;7.57;69.82
69225;DHT22;56333;51.306;17.056;2022-12-29T01:45:23;7.56;69.85
69225;DHT22;56333;51.306;17.056;2022-12-29T01:46:52;7.55;69.85
69225;DHT22;56333;51.306;17.056;2022-12-29T01:48:22;7.51;69.85
69225;DHT22;56333;51.306;17.056;2022-12-29T01:49:52;7.51;69.90
69225;DHT22;56333;51.306;17.056;2022-12-29T01:51:25;7.49;69.93
69225;DHT22;56333;51.306;17.056;2022-12-29T01:52:57;7.47;70.13
69225;DHT22;56333;51.306;17.056;2022-12-29T01:54:34;7.47;70.38
69225;DHT22;56333;51.306;17.056;2022-12-29T01:56:09;7.50;70.72
69225;DHT22;56333;51.306;17.056;2022-12-29T01:57:45;7.52;70.78
69225;DHT22;56333;51.306;17.056;2022-12-29T01:59:19;7.53;70.60
69225;DHT22;56333;51.306;17.056;2022-12-29T02:00:52;7.54;70.47
69225;DHT22;56333;51.306;17.056;2022-12-29T02:02:21;7.56;70.25
69225;DHT22;56333;51.306;17.056;2022-12-29T02:03:51;7.55;70.10
69225;DHT22;56333;51.306;17.056;2022-12-29T02:05:27;7.56;70.03
69225;DHT22;56333;51.306;17.056;2022-12-29T02:07:01;7.57;69.90
69225;DHT22;56333;51.306;17.056;2022-12-29T02:08:34;7.57;69.78
69225;DHT22;56333;51.306;17.056;2022-12-29T02:10:06;7.58;69.70
69225;DHT22;56333;51.306;17.056;2022-12-29T02:11:36;7.57;69.65
69225;DHT22;56333;51.306;17.056;2022-12-29T02:13:07;7.57;69.57
69225;DHT22;56333;51.306;17.056;2022-12-29T02:14:35;7.57;69.55
69225;DHT22;56333;51.306;17.056;2022-12-29T02:16:09;7.56;69.47
69225;DHT22;56333;51.306;17.056;2022-12-29T02:18:02;7.55;69.57
69225;DHT22;56333;51.306;17.056;2022-12-29T02:20:21;7.52;69.57
69225;DHT22;56333;51.306;17.056;2022-12-29T02:22:31;7.50;69.55
69225;DHT22;56333;51.306;17.056;2022-12-29T02:24:39;7.49;69.50
69225;DHT22;56333;51.306;17.056;2022-12-29T02:26:51;7.47;69.57
69225;DHT22;56333;51.306;17.056;2022-12-29T02:31:06;7.49;69.88
69225;DHT22;56333;51.306;17.056;2022-12-29T02:32:49;7.53;70.22
69225;DHT22;56333;51.306;17.056;2022-12-29T02:34:30;7.57;70.32
69225;DHT22;56333;51.306;17.056;2022-12-29T02:36:15;7.61;70.30
69225;DHT22;56333;51.306;17.056;2022-12-29T02:38:00;7.63;70.10
69225;DHT22;56333;51.306;17.056;2022-12-29T02:39:43;7.65;69.93
69225;DHT22;56333;51.306;17.056;2022-12-29T02:41:30;7.68;69.85
69225;DHT22;56333;51.306;17.056;2022-12-29T02:43:06;7.69;69.70
69225;DHT22;56333;51.306;17.056;2022-12-29T02:44:53;7.71;69.63
69225;DHT22;56333;51.306;17.056;2022-12-29T02:46:31;7.70;69.60
69225;DHT22;56333;51.306;17.056;2022-12-29T02:48:10;7.70;69.43
69225;DHT22;56333;51.306;17.056;2022-12-29T02:49:48;7.73;69.40
69225;DHT22;56333;51.306;17.056;2022-12-29T02:51:27;7.72;69.30
69225;DHT22;56333;51.306;17.056;2022-12-29T02:53:01;7.74;69.07
69225;DHT22;56333;51.306;17.056;2022-12-29T02:54:33;7.72;69.03
69225;DHT22;56333;51.306;17.056;2022-12-29T02:56:07;7.73;69.10
69225;DHT22;56333;51.306;17.056;2022-12-29T02:57:36;7.74;69.03
69225;DHT22;56333;51.306;17.056;2022-12-29T02:59:05;7.75;69.07
69225;DHT22;56333;51.306;17.056;2022-12-29T03:00:36;7.77;68.95
69225;DHT22;56333;51.306;17.056;2022-12-29T03:02:24;7.77;68.97
69225;DHT22;56333;51.306;17.056;2022-12-29T03:04:23;7.78;68.90
69225;DHT22;56333;51.306;17.056;2022-12-29T03:06:17;7.79;68.88
69225;DHT22;56333;51.306;17.056;2022-12-29T03:08:01;7.82;69.00
69225;DHT22;56333;51.306;17.056;2022-12-29T03:09:42;7.82;69.00
69225;DHT22;56333;51.306;17.056;2022-12-29T03:11:22;7.82;69.03
69225;DHT22;56333;51.306;17.056;2022-12-29T03:13:24;7.84;69.38
69225;DHT22;56333;51.306;17.056;2022-12-29T03:15:18;7.88;69.70
69225;DHT22;56333;51.306;17.056;2022-12-29T03:17:15;7.91;69.82
69225;DHT22;56333;51.306;17.056;2022-12-29T03:18:57;7.89;69.70
69225;DHT22;56333;51.306;17.056;2022-12-29T03:20:36;7.91;69.63
69225;DHT22;56333;51.306;17.056;2022-12-29T03:22:12;7.91;69.57
69225;DHT22;56333;51.306;17.056;2022-12-29T03:24:15;7.89;69.30
69225;DHT22;56333;51.306;17.056;2022-12-29T03:25:46;7.89;69.20
69225;DHT22;56333;51.306;17.056;2022-12-29T03:27:21;7.87;69.18
69225;DHT22;56333;51.306;17.056;2022-12-29T03:28:55;7.89;69.18
69225;DHT22;56333;51.306;17.056;2022-12-29T03:30:26;7.89;69.10
69225;DHT22;56333;51.306;17.056;2022-12-29T03:31:55;7.89;69.13
69225;DHT22;56333;51.306;17.056;2022-12-29T03:33:27;7.88;69.07
69225;DHT22;56333;51.306;17.056;2022-12-29T03:34:59;7.87;69.18
69225;DHT22;56333;51.306;17.056;2022-12-29T03:36:35;7.87;69.30
69225;DHT22;56333;51.306;17.056;2022-12-29T03:38:12;7.87;69.43
69225;DHT22;56333;51.306;17.056;2022-12-29T03:39:44;7.88;69.53
69225;DHT22;56333;51.306;17.056;2022-12-29T03:41:16;7.88;69.57
69225;DHT22;56333;51.306;17.056;2022-12-29T03:42:51;7.86;69.70
69225;DHT22;56333;51.306;17.056;2022-12-29T03:44:22;7.87;69.82
69225;DHT22;56333;51.306;17.056;2022-12-29T03:46:00;7.88;69.93
69225;DHT22;56333;51.306;17.056;2022-12-29T03:47:30;7.88;70.07
69225;DHT22;56333;51.306;17.056;2022-12-29T03:48:59;7.90;70.32
69225;DHT22;56333;51.306;17.056;2022-12-29T03:50:28;7.92;70.43
69225;DHT22;56333;51.306;17.056;2022-12-29T03:51:57;7.96;70.63
69225;DHT22;56333;51.306;17.056;2022-12-29T03:53:25;7.98;70.50
69225;DHT22;56333;51.306;17.056;2022-12-29T03:54:55;8.02;70.40
69225;DHT22;56333;51.306;17.056;2022-12-29T03:56:24;8.03;70.18
69225;DHT22;56333;51.306;17.056;2022-12-29T03:57:53;8.05;69.93
69225;DHT22;56333;51.306;17.056;2022-12-29T03:59:34;8.05;69.90
69225;DHT22;56333;51.306;17.056;2022-12-29T04:01:04;8.05;69.68
69225;DHT22;56333;51.306;17.056;2022-12-29T04:02:34;8.05;69.60
69225;DHT22;56333;51.306;17.056;2022-12-29T04:04:03;8.05;69.47
69225;DHT22;56333;51.306;17.056;2022-12-29T04:05:32;8.06;69.30
69225;DHT22;56333;51.306;17.056;2022-12-29T04:07:02;8.03;69.07
69225;DHT22;56333;51.306;17.056;2022-12-29T04:08:30;8.05;69.22
69225;DHT22;56333;51.306;17.056;2022-12-29T04:09:59;8.05;69.15
69225;DHT22;56333;51.306;17.056;2022-12-29T04:11:31;8.04;69.07
69225;DHT22;56333;51.306;17.056;2022-12-29T04:13:01;8.04;68.85
69225;DHT22;56333;51.306;17.056;2022-12-29T04:14:30;8.03;68.88
69225;DHT22;56333;51.306;17.056;2022-12-29T04:16:00;8.05;68.75
69225;DHT22;56333;51.306;17.056;2022-12-29T04:17:30;8.05;68.75
69225;DHT22;56333;51.306;17.056;2022-12-29T04:18:59;8.06;68.63
69225;DHT22;56333;51.306;17.056;2022-12-29T04:20:30;8.05;68.55
69225;DHT22;56333;51.306;17.056;2022-12-29T04:22:17;8.05;68.55
69225;DHT22;56333;51.306;17.056;2022-12-29T04:23:46;8.06;68.43
69225;DHT22;56333;51.306;17.056;2022-12-29T04:25:15;8.05;68.47
69225;DHT22;56333;51.306;17.056;2022-12-29T04:26:44;8.06;68.43
69225;DHT22;56333;51.306;17.056;2022-12-29T04:28:57;8.04;68.60
69225;DHT22;56333;51.306;17.056;2022-12-29T04:30:37;8.04;68.70
69225;DHT22;56333;51.306;17.056;2022-12-29T04:32:14;8.04;68.50
69225;DHT22;56333;51.306;17.056;2022-12-29T04:33:46;8.04;68.45
69225;DHT22;56333;51.306;17.056;2022-12-29T04:35:15;8.05;68.55
69225;DHT22;56333;51.306;17.056;2022-12-29T04:36:44;8.06;68.82
69225;DHT22;56333;51.306;17.056;2022-12-29T04:38:14;8.07;69.05
69225;DHT22;56333;51.306;17.056;2022-12-29T04:39:45;8.10;69.38
69225;DHT22;56333;51.306;17.056;2022-12-29T04:41:15;8.12;69.55
69225;DHT22;56333;51.306;17.056;2022-12-29T04:42:44;8.15;69.57
69225;DHT22;56333;51.306;17.056;2022-12-29T04:44:13;8.16;69.38
69225;DHT22;56333;51.306;17.056;2022-12-29T04:45:55;8.18;69.35
69225;DHT22;56333;51.306;17.056;2022-12-29T04:47:30;8.19;69.18
69225;DHT22;56333;51.306;17.056;2022-12-29T04:49:39;8.15;69.13
69225;DHT22;56333;51.306;17.056;2022-12-29T04:51:28;8.14;69.13
69225;DHT22;56333;51.306;17.056;2022-12-29T04:52:58;8.12;69.05
69225;DHT22;56333;51.306;17.056;2022-12-29T04:54:27;8.09;69.05
69225;DHT22;56333;51.306;17.056;2022-12-29T04:56:11;8.06;69.10
69225;DHT22;56333;51.306;17.056;2022-12-29T04:57:40;8.06;68.88
69225;DHT22;56333;51.306;17.056;2022-12-29T04:59:13;8.03;68.95
69225;DHT22;56333;51.306;17.056;2022-12-29T05:00:45;8.01;68.90
69225;DHT22;56333;51.306;17.056;2022-12-29T05:02:15;8.02;68.90
69225;DHT22;56333;51.306;17.056;2022-12-29T05:03:47;7.99;68.80
69225;DHT22;56333;51.306;17.056;2022-12-29T05:05:18;7.99;68.85
69225;DHT22;56333;51.306;17.056;2022-12-29T05:06:49;7.97;68.80
69225;DHT22;56333;51.306;17.056;2022-12-29T05:08:18;7.97;68.72
69225;DHT22;56333;51.306;17.056;2022-12-29T05:09:47;7.97;68.72
69225;DHT22;56333;51.306;17.056;2022-12-29T05:11:16;7.96;68.70
69225;DHT22;56333;51.306;17.056;2022-12-29T05:12:47;7.96;68.68
69225;DHT22;56333;51.306;17.056;2022-12-29T05:14:16;7.93;68.68
69225;DHT22;56333;51.306;17.056;2022-12-29T05:15:49;7.95;68.65
69225;DHT22;56333;51.306;17.056;2022-12-29T05:17:20;7.94;68.63
69225;DHT22;56333;51.306;17.056;2022-12-29T05:18:50;7.95;68.63
69225;DHT22;56333;51.306;17.056;2022-12-29T05:20:20;7.97;68.90
69225;DHT22;56333;51.306;17.056;2022-12-29T05:21:49;7.99;69.05
69225;DHT22;56333;51.306;17.056;2022-12-29T05:23:20;8.02;69.40
69225;DHT22;56333;51.306;17.056;2022-12-29T05:24:58;8.04;69.07
69225;DHT22;56333;51.306;17.056;2022-12-29T05:26:34;8.06;68.95
69225;DHT22;56333;51.306;17.056;2022-12-29T05:28:21;8.09;68.80
69225;DHT22;56333;51.306;17.056;2022-12-29T05:29:56;8.09;68.18
69225;DHT22;56333;51.306;17.056;2022-12-29T05:31:25;8.10;68.30
69225;DHT22;56333;51.306;17.056;2022-12-29T05:32:55;8.11;68.20
69225;DHT22;56333;51.306;17.056;2022-12-29T05:34:25;8.12;68.07
69225;DHT22;56333;51.306;17.056;2022-12-29T05:35:54;8.13;68.03
69225;DHT22;56333;51.306;17.056;2022-12-29T05:37:24;8.12;67.43
69225;DHT22;56333;51.306;17.056;2022-12-29T05:38:53;8.13;67.68
69225;DHT22;56333;51.306;17.056;2022-12-29T05:40:23;8.13;67.65
69225;DHT22;56333;51.306;17.056;2022-12-29T05:41:55;8.11;67.55
69225;DHT22;56333;51.306;17.056;2022-12-29T05:44:04;8.10;67.55
69225;DHT22;56333;51.306;17.056;2022-12-29T05:45:52;8.11;67.47
69225;DHT22;56333;51.306;17.056;2022-12-29T05:47:41;8.07;67.35
69225;DHT22;56333;51.306;17.056;2022-12-29T05:49:29;8.06;67.28
69225;DHT22;56333;51.306;17.056;2022-12-29T05:51:06;8.07;67.38
69225;DHT22;56333;51.306;17.056;2022-12-29T05:52:45;8.06;67.38
69225;DHT22;56333;51.306;17.056;2022-12-29T05:54:14;8.06;67.55
69225;DHT22;56333;51.306;17.056;2022-12-29T05:55:43;8.07;67.55
69225;DHT22;56333;51.306;17.056;2022-12-29T05:57:15;8.07;67.50
69225;DHT22;56333;51.306;17.056;2022-12-29T05:58:48;8.06;67.57
69225;DHT22;56333;51.306;17.056;2022-12-29T06:00:18;8.09;67.57
69225;DHT22;56333;51.306;17.056;2022-12-29T06:01:47;8.06;67.47
69225;DHT22;56333;51.306;17.056;2022-12-29T06:03:16;8.07;67.65
69225;DHT22;56333;51.306;17.056;2022-12-29T06:04:46;8.08;67.65
69225;DHT22;56333;51.306;17.056;2022-12-29T06:06:15;8.09;67.57
69225;DHT22;56333;51.306;17.056;2022-12-29T06:07:45;8.10;67.50
69225;DHT22;56333;51.306;17.056;2022-12-29T06:09:15;8.10;67.45
69225;DHT22;56333;51.306;17.056;2022-12-29T06:10:44;8.12;67.47
69225;DHT22;56333;51.306;17.056;2022-12-29T06:12:14;8.14;67.75
69225;DHT22;56333;51.306;17.056;2022-12-29T06:13:46;8.15;68.05
69225;DHT22;56333;51.306;17.056;2022-12-29T06:15:15;8.20;68.28
69225;DHT22;56333;51.306;17.056;2022-12-29T06:16:46;8.23;68.43
69225;DHT22;56333;51.306;17.056;2022-12-29T06:18:15;8.27;68.25
69225;DHT22;56333;51.306;17.056;2022-12-29T06:19:44;8.30;67.97
69225;DHT22;56333;51.306;17.056;2022-12-29T06:21:15;8.31;67.70
69225;DHT22;56333;51.306;17.056;2022-12-29T06:22:44;8.32;67.60
69225;DHT22;56333;51.306;17.056;2022-12-29T06:24:13;8.35;67.38
69225;DHT22;56333;51.306;17.056;2022-12-29T06:25:42;8.35;67.15
69225;DHT22;56333;51.306;17.056;2022-12-29T06:27:14;8.35;66.80
69225;DHT22;56333;51.306;17.056;2022-12-29T06:28:43;8.34;66.70
69225;DHT22;56333;51.306;17.056;2022-12-29T06:30:13;8.35;66.82
69225;DHT22;56333;51.306;17.056;2022-12-29T06:31:42;8.35;66.72
69225;DHT22;56333;51.306;17.056;2022-12-29T06:33:13;8.32;66.63
69225;DHT22;56333;51.306;17.056;2022-12-29T06:34:42;8.33;66.47
69225;DHT22;56333;51.306;17.056;2022-12-29T06:36:12;8.31;66.55
69225;DHT22;56333;51.306;17.056;2022-12-29T06:37:40;8.30;66.45
69225;DHT22;56333;51.306;17.056;2022-12-29T06:39:10;8.30;66.40
69225;DHT22;56333;51.306;17.056;2022-12-29T06:40:46;8.30;66.45
69225;DHT22;56333;51.306;17.056;2022-12-29T06:42:37;8.27;66.32
69225;DHT22;56333;51.306;17.056;2022-12-29T06:44:24;8.26;66.32
69225;DHT22;56333;51.306;17.056;2022-12-29T06:45:58;8.26;66.35
69225;DHT22;56333;51.306;17.056;2022-12-29T06:47:26;8.22;66.28
69225;DHT22;56333;51.306;17.056;2022-12-29T06:48:55;8.22;66.18
69225;DHT22;56333;51.306;17.056;2022-12-29T06:50:24;8.23;66.32
69225;DHT22;56333;51.306;17.056;2022-12-29T06:51:54;8.23;66.32
69225;DHT22;56333;51.306;17.056;2022-12-29T06:53:24;8.23;66.20
69225;DHT22;56333;51.306;17.056;2022-12-29T06:54:53;8.25;66.18
69225;DHT22;56333;51.306;17.056;2022-12-29T06:56:23;8.24;66.15
69225;DHT22;56333;51.306;17.056;2022-12-29T06:57:54;8.26;66.28
69225;DHT22;56333;51.306;17.056;2022-12-29T06:59:25;8.26;66.28
69225;DHT22;56333;51.306;17.056;2022-12-29T07:00:53;8.28;66.20
69225;DHT22;56333;51.306;17.056;2022-12-29T07:02:23;8.28;66.00
69225;DHT22;56333;51.306;17.056;2022-12-29T07:03:52;8.28;66.20
69225;DHT22;56333;51.306;17.056;2022-12-29T07:05:21;8.28;66.18
69225;DHT22;56333;51.306;17.056;2022-12-29T07:06:52;8.31;66.00
69225;DHT22;56333;51.306;17.056;2022-12-29T07:08:21;8.32;66.13
69225;DHT22;56333;51.306;17.056;2022-12-29T07:09:50;8.32;66.05
69225;DHT22;56333;51.306;17.056;2022-12-29T07:11:20;8.34;66.00
69225;DHT22;56333;51.306;17.056;2022-12-29T07:12:49;8.34;66.00
69225;DHT22;56333;51.306;17.056;2022-12-29T07:14:18;8.36;65.95
69225;DHT22;56333;51.306;17.056;2022-12-29T07:15:47;8.36;65.93
69225;DHT22;56333;51.306;17.056;2022-12-29T07:17:17;8.39;66.00
69225;DHT22;56333;51.306;17.056;2022-12-29T07:18:46;8.40;66.15
69225;DHT22;56333;51.306;17.056;2022-12-29T07:20:15;8.43;66.03
69225;DHT22;56333;51.306;17.056;2022-12-29T07:21:45;8.44;65.60
69225;DHT22;56333;51.306;17.056;2022-12-29T07:23:15;8.46;66.05
69225;DHT22;56333;51.306;17.056;2022-12-29T07:24:44;8.48;65.80
69225;DHT22;56333;51.306;17.056;2022-12-29T07:26:14;8.51;66.00
69225;DHT22;56333;51.306;17.056;2022-12-29T07:27:43;8.52;65.90
69225;DHT22;56333;51.306;17.056;2022-12-29T07:29:12;8.54;65.80
69225;DHT22;56333;51.306;17.056;2022-12-29T07:30:41;8.56;65.72
69225;DHT22;56333;51.306;17.056;2022-12-29T07:32:12;8.56;65.78
69225;DHT22;56333;51.306;17.056;2022-12-29T07:33:41;8.59;65.72
69225;DHT22;56333;51.306;17.056;2022-12-29T07:35:11;8.62;65.75
69225;DHT22;56333;51.306;17.056;2022-12-29T07:36:41;8.64;65.63
69225;DHT22;56333;51.306;17.056;2022-12-29T07:38:10;8.65;65.72
69225;DHT22;56333;51.306;17.056;2022-12-29T07:39:39;8.67;65.72
69225;DHT22;56333;51.306;17.056;2022-12-29T07:41:08;8.69;65.65
69225;DHT22;56333;51.306;17.056;2022-12-29T07:42:37;8.71;65.40
69225;DHT22;56333;51.306;17.056;2022-12-29T07:44:09;8.72;65.53
69225;DHT22;56333;51.306;17.056;2022-12-29T07:45:59;8.73;65.50
69225;DHT22;56333;51.306;17.056;2022-12-29T07:47:26;8.73;65.53
69225;DHT22;56333;51.306;17.056;2022-12-29T07:48:55;8.74;65.53
69225;DHT22;56333;51.306;17.056;2022-12-29T07:50:24;8.74;65.60
69225;DHT22;56333;51.306;17.056;2022-12-29T07:51:53;8.73;65.45
69225;DHT22;56333;51.306;17.056;2022-12-29T07:53:22;8.71;65.38
69225;DHT22;56333;51.306;17.056;2022-12-29T07:54:51;8.73;65.45
69225;DHT22;56333;51.306;17.056;2022-12-29T07:56:21;8.72;65.28
69225;DHT22;56333;51.306;17.056;2022-12-29T07:57:50;8.72;65.22
69225;DHT22;56333;51.306;17.056;2022-12-29T07:59:21;8.73;65.28
69225;DHT22;56333;51.306;17.056;2022-12-29T08:00:56;8.76;65.18
69225;DHT22;56333;51.306;17.056;2022-12-29T08:02:26;8.74;65.13
69225;DHT22;56333;51.306;17.056;2022-12-29T08:03:57;8.75;65.07
69225;DHT22;56333;51.306;17.056;2022-12-29T08:05:26;8.77;65.20
69225;DHT22;56333;51.306;17.056;2022-12-29T08:06:56;8.80;65.20
69225;DHT22;56333;51.306;17.056;2022-12-29T08:08:26;8.81;65.07
69225;DHT22;56333;51.306;17.056;2022-12-29T08:09:58;8.85;65.00
69225;DHT22;56333;51.306;17.056;2022-12-29T08:11:30;8.87;65.07
69225;DHT22;56333;51.306;17.056;2022-12-29T08:13:01;8.93;65.07
69225;DHT22;56333;51.306;17.056;2022-12-29T08:14:30;8.97;65.00
69225;DHT22;56333;51.306;17.056;2022-12-29T08:16:00;9.00;65.00
69225;DHT22;56333;51.306;17.056;2022-12-29T08:17:30;9.04;64.93
69225;DHT22;56333;51.306;17.056;2022-12-29T08:19:00;9.07;64.97
69225;DHT22;56333;51.306;17.056;2022-12-29T08:20:29;9.13;64.93
69225;DHT22;56333;51.306;17.056;2022-12-29T08:21:59;9.16;64.95
69225;DHT22;56333;51.306;17.056;2022-12-29T08:23:28;9.22;64.93
69225;DHT22;56333;51.306;17.056;2022-12-29T08:24:57;9.27;64.82
69225;DHT22;56333;51.306;17.056;2022-12-29T08:26:26;9.33;64.85
69225;DHT22;56333;51.306;17.056;2022-12-29T08:27:55;9.39;64.80
69225;DHT22;56333;51.306;17.056;2022-12-29T08:29:24;9.43;64.72
69225;DHT22;56333;51.306;17.056;2022-12-29T08:30:56;9.48;64.57
69225;DHT22;56333;51.306;17.056;2022-12-29T08:32:27;9.52;64.43
69225;DHT22;56333;51.306;17.056;2022-12-29T08:33:57;9.57;64.32
69225;DHT22;56333;51.306;17.056;2022-12-29T08:35:27;9.62;64.18
69225;DHT22;56333;51.306;17.056;2022-12-29T08:36:58;9.66;64.15
69225;DHT22;56333;51.306;17.056;2022-12-29T08:38:28;9.70;64.18
69225;DHT22;56333;51.306;17.056;2022-12-29T08:39:57;9.74;63.97
69225;DHT22;56333;51.306;17.056;2022-12-29T08:41:28;9.78;63.83
69225;DHT22;56333;51.306;17.056;2022-12-29T08:42:57;9.81;63.78
69225;DHT22;56333;51.306;17.056;2022-12-29T08:44:26;9.84;63.60
69225;DHT22;56333;51.306;17.056;2022-12-29T08:45:56;9.88;63.50
69225;DHT22;56333;51.306;17.056;2022-12-29T08:47:26;9.90;63.55
69225;DHT22;56333;51.306;17.056;2022-12-29T08:48:57;9.91;63.55
69225;DHT22;56333;51.306;17.056;2022-12-29T08:50:26;9.95;63.47
69225;DHT22;56333;51.306;17.056;2022-12-29T08:51:55;9.97;63.40
69225;DHT22;56333;51.306;17.056;2022-12-29T08:53:25;10.01;63.38
69225;DHT22;56333;51.306;17.056;2022-12-29T08:54:55;10.02;63.38
69225;DHT22;56333;51.306;17.056;2022-12-29T08:56:24;10.05;63.47
69225;DHT22;56333;51.306;17.056;2022-12-29T08:57:54;10.09;63.45
69225;DHT22;56333;51.306;17.056;2022-12-29T08:59:24;10.10;63.55
69225;DHT22;56333;51.306;17.056;2022-12-29T09:00:54;10.13;63.30
69225;DHT22;56333;51.306;17.056;2022-12-29T09:02:25;10.17;63.58
69225;DHT22;56333;51.306;17.056;2022-12-29T09:03:54;10.20;63.35
69225;DHT22;56333;51.306;17.056;2022-12-29T09:05:24;10.24;63.33
69225;DHT22;56333;51.306;17.056;2022-12-29T09:06:53;10.27;63.25
69225;DHT22;56333;51.306;17.056;2022-12-29T09:08:22;10.30;63.22
69225;DHT22;56333;51.306;17.056;2022-12-29T09:09:54;10.33;63.03
69225;DHT22;56333;51.306;17.056;2022-12-29T09:11:26;10.36;62.88
69225;DHT22;56333;51.306;17.056;2022-12-29T09:12:56;10.38;62.95
69225;DHT22;56333;51.306;17.056;2022-12-29T09:14:26;10.41;63.00
69225;DHT22;56333;51.306;17.056;2022-12-29T09:16:00;10.46;63.08
69225;DHT22;56333;51.306;17.056;2022-12-29T09:17:29;10.49;62.78
69225;DHT22;56333;51.306;17.056;2022-12-29T09:19:09;10.51;62.92
69225;DHT22;56333;51.306;17.056;2022-12-29T09:20:38;10.52;62.80
69225;DHT22;56333;51.306;17.056;2022-12-29T09:22:07;10.53;62.78
69225;DHT22;56333;51.306;17.056;2022-12-29T09:23:36;10.53;62.72
69225;DHT22;56333;51.306;17.056;2022-12-29T09:25:06;10.55;62.53
69225;DHT22;56333;51.306;17.056;2022-12-29T09:26:37;10.55;62.58
69225;DHT22;56333;51.306;17.056;2022-12-29T09:28:06;10.56;62.42
69225;DHT22;56333;51.306;17.056;2022-12-29T09:29:35;10.57;62.38
69225;DHT22;56333;51.306;17.056;2022-12-29T09:31:05;10.60;62.40
69225;DHT22;56333;51.306;17.056;2022-12-29T09:32:35;10.61;62.20
69225;DHT22;56333;51.306;17.056;2022-12-29T09:34:04;10.60;62.33
69225;DHT22;56333;51.306;17.056;2022-12-29T09:35:33;10.61;62.08
69225;DHT22;56333;51.306;17.056;2022-12-29T09:37:02;10.63;62.40
69225;DHT22;56333;51.306;17.056;2022-12-29T09:38:31;10.66;62.40
69225;DHT22;56333;51.306;17.056;2022-12-29T09:40:00;10.66;62.20
69225;DHT22;56333;51.306;17.056;2022-12-29T09:41:34;10.66;62.03
69225;DHT22;56333;51.306;17.056;2022-12-29T09:43:46;10.65;62.15
69225;DHT22;56333;51.306;17.056;2022-12-29T09:45:29;10.69;62.33
69225;DHT22;56333;51.306;17.056;2022-12-29T09:47:07;10.69;62.10
69225;DHT22;56333;51.306;17.056;2022-12-29T09:48:41;10.69;62.17
69225;DHT22;56333;51.306;17.056;2022-12-29T09:50:20;10.73;62.50
69225;DHT22;56333;51.306;17.056;2022-12-29T09:51:54;10.75;62.50
69225;DHT22;56333;51.306;17.056;2022-12-29T09:53:29;10.77;62.70
69225;DHT22;56333;51.306;17.056;2022-12-29T09:55:05;10.81;62.58